createdAt,value
2023-05-09T04:00:30.839Z,997.31
2023-05-09T04:05:30.664Z,997.19
2023-05-09T04:10:30.645Z,997.13
2023-05-09T04:15:30.556Z,997.15
2023-05-09T04:20:30.656Z,997.11
2023-05-09T04:25:30.494Z,997.07
2023-05-09T04:30:30.456Z,997.02
2023-05-09T04:35:30.464Z,996.89
2023-05-09T04:40:30.434Z,996.86
2023-05-09T04:45:30.229Z,996.83
2023-05-09T04:50:30.173Z,996.86
2023-05-09T04:55:30.144Z,996.80
2023-05-09T05:00:30.202Z,996.73
2023-05-09T05:05:30.292Z,996.80
2023-05-09T05:10:29.960Z,996.74
2023-05-09T05:15:29.903Z,996.72
2023-05-09T05:20:30.016Z,996.65
2023-05-09T05:25:29.831Z,996.59
2023-05-09T05:30:30.722Z,996.64
2023-05-09T05:35:29.709Z,996.55
2023-05-09T05:40:29.749Z,996.55
2023-05-09T05:45:29.597Z,996.53
2023-05-09T05:50:29.511Z,996.49
2023-05-09T05:55:29.482Z,996.42
2023-05-09T06:00:29.672Z,996.36
2023-05-09T06:05:29.378Z,996.34
2023-05-09T06:10:29.396Z,996.20
2023-05-09T06:15:29.259Z,996.22
2023-05-09T06:20:29.325Z,996.19
2023-05-09T06:25:29.124Z,995.98
2023-05-09T06:30:29.169Z,996.01
2023-05-09T06:35:29.028Z,996.05
2023-05-09T06:40:29.132Z,995.98
2023-05-09T06:45:28.927Z,995.91
2023-05-09T06:50:31.470Z,995.90
2023-05-09T06:55:28.786Z,995.79
2023-05-09T07:00:28.892Z,995.79
2023-05-09T07:05:28.751Z,995.64
2023-05-09T07:10:28.661Z,995.75
2023-05-09T07:15:40.306Z,995.53
2023-05-09T07:20:29.777Z,995.43
2023-05-09T07:25:28.474Z,995.36
2023-05-09T07:30:28.494Z,995.29
2023-05-09T07:35:28.387Z,995.27
2023-05-09T07:40:28.448Z,995.15
2023-05-09T07:45:28.354Z,995.24
2023-05-09T07:50:28.194Z,995.08
2023-05-09T07:55:28.157Z,995.14
2023-05-09T08:00:28.227Z,995.23
2023-05-09T08:05:28.043Z,995.10
2023-05-09T08:10:28.031Z,995.05
2023-05-09T08:15:27.953Z,994.84
2023-05-09T08:20:28.034Z,994.84
2023-05-09T08:25:27.811Z,994.68
2023-05-09T08:30:27.768Z,994.59
2023-05-09T08:35:27.744Z,994.63
2023-05-09T08:40:27.815Z,994.54
2023-05-09T08:45:27.627Z,994.49
2023-05-09T08:50:27.588Z,994.38
2023-05-09T08:55:27.519Z,994.30
2023-05-09T09:00:28.046Z,994.36
2023-05-09T09:05:40.796Z,994.32
2023-05-09T09:10:28.378Z,994.18
2023-05-09T09:15:27.296Z,994.09
2023-05-09T09:20:27.371Z,994.03
2023-05-09T09:25:27.166Z,993.93
2023-05-09T09:30:27.161Z,993.98
2023-05-09T09:35:27.058Z,993.92
2023-05-09T09:40:27.166Z,993.79
2023-05-09T09:45:27.001Z,993.82
2023-05-09T09:50:26.943Z,993.77
2023-05-09T09:55:26.858Z,993.67
2023-05-09T10:00:26.923Z,993.64
2023-05-09T10:05:26.971Z,993.52
2023-05-09T10:10:26.703Z,993.46
2023-05-09T10:15:45.142Z,993.44
2023-05-09T10:20:27.579Z,993.43
2023-05-09T10:25:26.563Z,993.36
2023-05-09T10:30:26.474Z,993.35
2023-05-09T10:35:26.590Z,993.19
2023-05-09T10:40:26.440Z,993.20
2023-05-09T10:45:26.321Z,993.12
2023-05-09T10:50:26.286Z,993.04
2023-05-09T10:55:26.319Z,993.03
2023-05-09T11:00:26.182Z,992.87
2023-05-09T11:05:26.093Z,992.80
2023-05-09T11:10:26.051Z,992.73
2023-05-09T11:15:26.132Z,992.67
2023-05-09T11:20:25.946Z,992.52
2023-05-09T11:25:25.906Z,992.58
2023-05-09T11:30:25.862Z,992.46
2023-05-09T11:35:25.911Z,992.40
2023-05-09T11:40:25.741Z,992.38
2023-05-09T11:45:25.690Z,992.28
2023-05-09T11:50:25.641Z,992.26
2023-05-09T11:55:25.945Z,992.10
2023-05-09T12:00:25.508Z,992.12
2023-05-09T12:05:25.460Z,991.97
2023-05-09T12:10:25.407Z,991.91
2023-05-09T12:15:25.375Z,991.77
2023-05-09T12:20:25.313Z,991.76
2023-05-09T12:25:25.318Z,991.73
2023-05-09T12:30:25.194Z,991.68
2023-05-09T12:35:25.280Z,991.53
2023-05-09T12:40:25.092Z,991.51
2023-05-09T12:45:25.044Z,991.51
2023-05-09T12:50:24.973Z,991.40
2023-05-09T12:55:25.057Z,991.33
2023-05-09T13:00:24.873Z,991.35
2023-05-09T13:05:24.809Z,991.17
2023-05-09T13:10:25.035Z,991.17
2023-05-09T13:15:24.742Z,991.08
2023-05-09T13:20:24.658Z,990.94
2023-05-09T13:25:24.605Z,990.93
2023-05-09T13:30:24.554Z,990.79
2023-05-09T13:35:24.617Z,990.79
2023-05-09T13:40:24.481Z,990.72
2023-05-09T13:45:24.391Z,990.61
2023-05-09T13:50:24.340Z,990.64
2023-05-09T13:55:24.393Z,990.57
2023-05-09T14:00:24.226Z,990.52
2023-05-09T14:05:24.175Z,990.45
2023-05-09T14:10:24.135Z,990.44
2023-05-09T14:15:24.091Z,990.33
2023-05-09T14:20:24.020Z,990.28
2023-05-09T14:25:23.963Z,990.37
2023-05-09T14:30:23.905Z,990.42
2023-05-09T14:35:24.039Z,990.52
2023-05-09T14:40:23.794Z,990.50
2023-05-09T14:45:23.753Z,990.53
2023-05-09T14:50:23.686Z,990.52
2023-05-09T14:55:23.767Z,990.55
2023-05-09T15:00:23.938Z,990.45
2023-05-09T15:05:23.523Z,990.53
2023-05-09T15:10:23.464Z,990.53
2023-05-09T15:15:23.549Z,990.51
2023-05-09T15:20:23.365Z,990.45
2023-05-09T15:25:23.311Z,990.43
2023-05-09T15:30:23.289Z,990.37
2023-05-09T15:35:23.438Z,990.35
2023-05-09T15:40:23.149Z,990.28
2023-05-09T15:45:23.105Z,990.37
2023-05-09T15:50:23.040Z,990.31
2023-05-09T15:55:23.123Z,990.22
2023-05-09T16:00:22.941Z,990.22
2023-05-09T16:05:22.888Z,990.16
2023-05-09T16:10:22.831Z,990.18
2023-05-09T16:15:22.901Z,990.16
2023-05-09T16:20:29.805Z,990.09
2023-05-09T16:25:22.815Z,989.97
2023-05-09T16:30:22.613Z,990.00
2023-05-09T16:35:22.683Z,990.02
2023-05-09T16:40:22.508Z,990.00
2023-05-09T16:45:22.528Z,989.92
2023-05-09T16:50:22.406Z,989.96
2023-05-09T16:55:22.496Z,989.81
2023-05-09T17:00:22.315Z,989.86
2023-05-09T17:05:22.236Z,989.82
2023-05-09T17:10:22.208Z,989.76
2023-05-09T17:15:22.264Z,989.71
2023-05-09T17:20:22.084Z,989.72
2023-05-09T17:25:22.027Z,989.63
2023-05-09T17:30:23.239Z,989.70
2023-05-09T17:35:22.043Z,989.57
2023-05-09T17:40:21.955Z,989.61
2023-05-09T17:45:21.849Z,989.52
2023-05-09T17:50:21.760Z,989.45
2023-05-09T17:55:21.836Z,989.47
2023-05-09T18:00:21.654Z,989.45
2023-05-09T18:05:21.605Z,989.38
2023-05-09T18:10:21.561Z,989.44
2023-05-09T18:15:21.600Z,989.44
2023-05-09T18:20:21.443Z,989.45
2023-05-09T18:25:21.380Z,989.43
2023-05-09T18:30:21.350Z,989.45
2023-05-09T18:35:21.410Z,989.39
2023-05-09T18:40:21.316Z,989.33
2023-05-09T18:45:21.163Z,989.38
2023-05-09T18:50:21.100Z,989.33
2023-05-09T18:55:21.186Z,989.32
2023-05-09T19:00:21.005Z,989.29
2023-05-09T19:05:20.940Z,989.23
2023-05-09T19:10:20.911Z,989.30
2023-05-09T19:15:20.968Z,989.33
2023-05-09T19:20:20.778Z,989.33
2023-05-09T19:25:20.716Z,989.25
2023-05-09T19:30:20.669Z,989.32
2023-05-09T19:35:20.745Z,989.38
2023-05-09T19:40:20.553Z,989.40
2023-05-09T19:45:20.519Z,989.36
2023-05-09T19:50:20.457Z,989.35
2023-05-09T19:55:20.444Z,989.40
2023-05-09T20:00:20.337Z,989.40
2023-05-09T20:05:20.283Z,989.44
2023-05-09T20:10:20.231Z,989.39
2023-05-09T20:15:20.193Z,989.38
2023-05-09T20:20:20.117Z,989.40
2023-05-09T20:25:20.100Z,989.42
2023-05-09T20:30:20.004Z,989.52
2023-05-09T20:35:19.969Z,989.52
2023-05-09T20:40:19.908Z,989.53
2023-05-09T20:45:19.860Z,989.47
2023-05-09T20:50:19.801Z,989.44
2023-05-09T20:55:19.839Z,989.38
2023-05-09T21:00:19.677Z,989.44
2023-05-09T21:05:19.620Z,989.39
2023-05-09T21:10:19.574Z,989.39
2023-05-09T21:15:19.550Z,989.43
2023-05-09T21:20:19.465Z,989.40
2023-05-09T21:25:19.405Z,989.41
2023-05-09T21:30:19.354Z,989.35
2023-05-09T21:35:19.332Z,989.35
2023-05-09T21:40:19.237Z,989.37
2023-05-09T21:45:19.286Z,989.37
2023-05-09T21:50:19.158Z,989.37
2023-05-09T21:55:19.218Z,989.33
2023-05-09T22:00:19.143Z,989.30
2023-05-09T22:05:18.946Z,989.25
2023-05-09T22:10:18.985Z,989.26
2023-05-09T22:15:18.875Z,989.32
2023-05-09T22:20:19.043Z,989.34
2023-05-09T22:25:25.753Z,989.33
2023-05-09T22:30:18.809Z,989.24
2023-05-09T22:35:18.638Z,989.30
2023-05-09T22:40:18.653Z,989.27
2023-05-09T22:45:18.528Z,989.32
2023-05-09T22:50:18.638Z,989.29
2023-05-09T22:55:18.412Z,989.32
2023-05-09T23:00:18.504Z,989.32
2023-05-09T23:05:18.310Z,989.28
2023-05-09T23:10:18.579Z,989.29
2023-05-09T23:15:18.193Z,989.27
2023-05-09T23:20:18.454Z,989.19
2023-05-09T23:25:18.079Z,989.23
